createdAt,value
2023-03-17T00:01:26.653Z,77.71
2023-03-17T00:03:30.494Z,78.91
2023-03-17T00:05:35.625Z,77.92
2023-03-17T00:07:38.749Z,78.05
2023-03-17T00:09:41.842Z,78.73
2023-03-17T00:11:47.131Z,78.70
2023-03-17T00:13:50.289Z,79.08
2023-03-17T00:15:55.776Z,78.97
2023-03-17T00:17:59.013Z,78.07
2023-03-17T00:20:02.210Z,79.26
2023-03-17T00:22:06.616Z,79.25
2023-03-17T00:24:12.964Z,78.79
2023-03-17T00:26:17.787Z,79.46
2023-03-17T00:28:24.683Z,78.74
2023-03-17T00:30:29.041Z,79.21
2023-03-17T00:32:32.899Z,78.95
2023-03-17T00:34:36.284Z,79.61
2023-03-17T00:36:39.497Z,78.63
2023-03-17T00:38:42.645Z,79.75
2023-03-17T00:40:49.030Z,79.74
2023-03-17T00:42:53.497Z,79.23
2023-03-17T00:44:58.011Z,80.17
2023-03-17T00:47:01.894Z,80.08
2023-03-17T00:49:07.484Z,80.19
2023-03-17T00:51:10.767Z,80.00
2023-03-17T00:53:15.146Z,79.89
2023-03-17T00:55:20.450Z,79.82
2023-03-17T00:57:24.660Z,80.10
2023-03-17T00:59:30.849Z,80.78
2023-03-17T01:01:35.704Z,79.88
2023-03-17T01:03:39.598Z,80.78
2023-03-17T01:05:42.823Z,81.05
2023-03-17T01:07:52.754Z,80.98
2023-03-17T01:09:56.063Z,80.61
2023-03-17T01:12:00.630Z,80.71
2023-03-17T01:14:03.737Z,80.58
2023-03-17T01:16:10.157Z,81.19
2023-03-17T01:18:16.931Z,81.00
2023-03-17T01:20:22.811Z,80.77
2023-03-17T01:22:26.078Z,81.40
2023-03-17T01:24:29.300Z,81.40
2023-03-17T01:26:32.436Z,80.86
2023-03-17T01:28:36.195Z,80.93
2023-03-17T01:30:40.319Z,81.35
2023-03-17T01:32:43.441Z,81.83
2023-03-17T01:34:47.932Z,81.78
2023-03-17T01:36:51.024Z,81.88
2023-03-17T01:38:54.085Z,81.55
2023-03-17T01:40:57.173Z,82.01
2023-03-17T01:43:02.120Z,81.90
2023-03-17T01:45:08.157Z,82.01
2023-03-17T01:47:11.336Z,81.23
2023-03-17T01:49:21.205Z,82.06
2023-03-17T01:51:29.513Z,82.04
2023-03-17T01:53:32.659Z,81.43
2023-03-17T01:55:36.652Z,82.35
2023-03-17T01:57:42.101Z,81.69
2023-03-17T01:59:48.079Z,81.58
2023-03-17T02:01:54.362Z,82.47
2023-03-17T02:03:57.697Z,82.21
2023-03-17T02:06:01.546Z,82.33
2023-03-17T02:08:11.150Z,82.56
2023-03-17T02:10:15.801Z,82.31
2023-03-17T02:12:18.985Z,81.85
2023-03-17T02:14:25.612Z,81.19
2023-03-17T02:16:31.713Z,81.92
2023-03-17T02:18:35.181Z,81.77
2023-03-17T02:21:26.023Z,81.57
2023-03-17T02:23:30.585Z,82.04
2023-03-17T02:25:35.907Z,81.79
2023-03-17T02:27:41.884Z,82.21
2023-03-17T02:29:46.381Z,82.14
2023-03-17T02:31:49.718Z,82.48
2023-03-17T02:33:53.242Z,82.55
2023-03-17T02:35:57.648Z,82.32
2023-03-17T02:38:01.049Z,81.72
2023-03-17T02:40:09.382Z,81.47
2023-03-17T02:42:13.966Z,81.01
2023-03-17T02:44:17.206Z,80.36
2023-03-17T02:46:19.704Z,80.02
2023-03-17T02:48:23.695Z,80.54
2023-03-17T02:50:28.790Z,80.16
2023-03-17T02:52:32.182Z,80.86
2023-03-17T02:54:35.946Z,80.47
2023-03-17T02:56:41.084Z,80.61
2023-03-17T02:58:44.415Z,80.87
2023-03-17T03:00:48.838Z,81.14
2023-03-17T03:02:51.963Z,80.92
2023-03-17T03:04:55.085Z,81.66
2023-03-17T03:07:01.082Z,81.77
2023-03-17T03:09:04.769Z,81.97
2023-03-17T03:11:07.891Z,82.99
2023-03-17T03:13:12.929Z,82.69
2023-03-17T03:15:16.102Z,82.62
2023-03-17T03:17:19.279Z,82.27
2023-03-17T03:19:22.781Z,82.69
2023-03-17T03:21:26.437Z,82.79
2023-03-17T03:23:29.591Z,82.76
2023-03-17T03:25:32.762Z,82.88
2023-03-17T03:27:36.234Z,83.07
2023-03-17T03:29:41.721Z,83.31
2023-03-17T03:31:44.822Z,83.20
2023-03-17T03:33:48.305Z,82.87
2023-03-17T03:35:51.390Z,82.73
2023-03-17T03:37:54.487Z,83.44
2023-03-17T03:39:57.554Z,82.68
2023-03-17T03:42:00.704Z,82.54
2023-03-17T03:44:03.941Z,82.70
2023-03-17T03:46:08.562Z,82.77
2023-03-17T03:48:11.730Z,82.70
2023-03-17T03:50:14.954Z,82.56
2023-03-17T03:52:18.058Z,82.36
2023-03-17T03:54:21.150Z,82.83
2023-03-17T03:56:24.217Z,82.78
2023-03-17T03:58:27.248Z,82.42
2023-03-17T04:00:30.655Z,82.26
2023-03-17T04:02:35.241Z,82.56
2023-03-17T04:04:38.622Z,82.63
2023-03-17T04:06:41.955Z,82.51
2023-03-17T04:08:45.014Z,82.36
2023-03-17T04:10:48.231Z,82.22
2023-03-17T04:12:51.572Z,81.96
2023-03-17T04:14:54.832Z,82.16
2023-03-17T04:16:57.915Z,82.46
2023-03-17T04:19:02.390Z,82.38
2023-03-17T04:21:06.129Z,82.87
2023-03-17T04:23:09.335Z,83.03
2023-03-17T04:25:14.628Z,82.33
2023-03-17T04:27:18.735Z,82.66
2023-03-17T04:29:21.806Z,82.54
2023-03-17T04:31:24.883Z,81.66
2023-03-17T04:33:28.003Z,82.52
2023-03-17T04:35:32.450Z,82.71
2023-03-17T04:37:35.533Z,82.97
2023-03-17T04:39:38.702Z,82.77
2023-03-17T04:41:41.783Z,82.79
2023-03-17T04:43:45.004Z,83.01
2023-03-17T04:45:48.062Z,82.77
2023-03-17T04:47:51.179Z,82.89
2023-03-17T04:49:54.345Z,82.94
2023-03-17T04:51:58.811Z,82.68
2023-03-17T04:54:02.313Z,82.91
2023-03-17T04:56:05.994Z,82.60
2023-03-17T04:58:10.365Z,82.89
2023-03-17T05:00:15.699Z,83.28
2023-03-17T05:02:19.577Z,83.06
2023-03-17T05:04:31.273Z,83.32
2023-03-17T05:06:34.949Z,82.75
2023-03-17T05:08:39.406Z,82.58
2023-03-17T05:10:42.571Z,83.16
2023-03-17T05:12:45.897Z,82.96
2023-03-17T05:14:49.046Z,82.62
2023-03-17T05:16:52.443Z,82.99
2023-03-17T05:18:56.280Z,82.64
2023-03-17T05:20:59.264Z,83.09
2023-03-17T05:23:02.315Z,82.78
2023-03-17T05:25:07.757Z,83.42
2023-03-17T05:27:11.007Z,82.77
2023-03-17T05:29:14.623Z,83.56
2023-03-17T05:31:19.103Z,83.40
2023-03-17T05:33:23.049Z,83.64
2023-03-17T05:35:26.204Z,83.38
2023-03-17T05:37:29.487Z,83.19
2023-03-17T05:39:32.895Z,83.69
2023-03-17T05:41:37.354Z,83.33
2023-03-17T05:43:41.329Z,83.30
2023-03-17T05:45:45.083Z,84.05
2023-03-17T05:47:48.229Z,83.87
2023-03-17T05:49:51.643Z,84.39
2023-03-17T05:51:55.165Z,83.82
2023-03-17T05:53:58.362Z,83.35
2023-03-17T05:56:01.729Z,83.66
2023-03-17T05:58:06.639Z,83.88
2023-03-17T06:00:12.773Z,84.47
2023-03-17T06:02:16.240Z,83.87
2023-03-17T06:04:19.357Z,83.45
2023-03-17T06:06:22.429Z,83.80
2023-03-17T06:08:25.504Z,84.02
2023-03-17T06:10:29.203Z,84.53
2023-03-17T06:12:32.788Z,84.55
2023-03-17T06:14:37.427Z,84.30
2023-03-17T06:16:40.637Z,85.17
2023-03-17T06:18:43.775Z,85.47
2023-03-17T06:20:46.952Z,84.86
2023-03-17T06:23:03.186Z,83.34
2023-03-17T06:25:08.426Z,83.53
2023-03-17T06:27:13.040Z,82.31
2023-03-17T06:29:16.171Z,81.19
2023-03-17T06:31:20.649Z,79.89
2023-03-17T06:33:24.845Z,80.08
2023-03-17T06:35:28.487Z,79.65
2023-03-17T06:37:31.647Z,78.60
2023-03-17T06:39:34.739Z,78.05
2023-03-17T06:41:37.822Z,78.36
2023-03-17T06:43:40.916Z,79.48
2023-03-17T06:45:43.991Z,78.27
2023-03-17T06:47:48.397Z,79.94
2023-03-17T06:49:51.449Z,80.09
2023-03-17T06:51:54.733Z,79.03
2023-03-17T06:53:57.918Z,79.29
2023-03-17T06:56:01.035Z,78.35
2023-03-17T06:58:04.065Z,78.73
2023-03-17T07:00:08.494Z,77.30
2023-03-17T07:02:12.745Z,78.00
2023-03-17T07:04:17.387Z,77.75
2023-03-17T07:06:20.594Z,76.45
2023-03-17T07:08:25.988Z,75.81
2023-03-17T07:10:30.351Z,75.57
2023-03-17T07:12:34.575Z,74.63
2023-03-17T07:14:38.018Z,74.16
2023-03-17T07:16:41.418Z,72.50
2023-03-17T07:18:45.038Z,72.49
2023-03-17T07:20:49.489Z,72.44
2023-03-17T07:22:52.896Z,73.27
2023-03-17T07:24:56.069Z,74.21
2023-03-17T07:26:59.150Z,72.84
2023-03-17T07:29:02.484Z,70.93
2023-03-17T07:31:08.826Z,71.00
2023-03-17T07:33:12.234Z,71.79
2023-03-17T07:35:16.102Z,72.09
2023-03-17T07:37:21.419Z,70.62
2023-03-17T07:39:24.552Z,70.31
2023-03-17T07:41:27.609Z,70.75
2023-03-17T07:43:30.754Z,70.06
2023-03-17T07:45:35.973Z,71.12
2023-03-17T07:47:39.327Z,71.83
2023-03-17T07:49:42.694Z,71.47
2023-03-17T07:51:45.899Z,71.30
2023-03-17T07:53:50.694Z,70.82
2023-03-17T07:55:53.905Z,69.54
2023-03-17T07:57:57.461Z,70.91
2023-03-17T08:00:01.185Z,71.87
2023-03-17T08:02:16.489Z,71.72
2023-03-17T08:04:19.967Z,70.08
2023-03-17T08:06:25.316Z,70.80
2023-03-17T08:08:29.247Z,72.13
2023-03-17T08:10:34.115Z,71.78
2023-03-17T08:12:37.639Z,70.13
2023-03-17T08:14:41.479Z,70.36
2023-03-17T08:16:44.638Z,69.36
2023-03-17T08:18:48.106Z,68.83
2023-03-17T08:20:51.454Z,68.03
2023-03-17T08:22:54.774Z,67.59
2023-03-17T08:24:58.605Z,66.69
2023-03-17T08:27:03.956Z,67.54
2023-03-17T08:29:08.198Z,66.95
2023-03-17T08:31:13.747Z,70.09
2023-03-17T08:33:17.211Z,68.25
2023-03-17T08:35:20.859Z,67.82
2023-03-17T08:37:24.676Z,68.74
2023-03-17T08:39:27.936Z,67.84
2023-03-17T08:41:31.128Z,66.00
2023-03-17T08:43:37.356Z,67.25
2023-03-17T08:45:40.753Z,67.44
2023-03-17T08:47:43.936Z,67.31
2023-03-17T08:49:46.954Z,65.95
2023-03-17T08:51:50.084Z,64.83
2023-03-17T08:53:54.097Z,63.35
2023-03-17T08:55:57.885Z,64.54
2023-03-17T08:58:01.502Z,64.48
2023-03-17T09:00:11.025Z,62.64
2023-03-17T09:02:14.524Z,59.13
2023-03-17T09:04:17.767Z,61.21
2023-03-17T09:06:21.416Z,62.06
2023-03-17T09:08:24.808Z,59.83
2023-03-17T09:10:29.262Z,57.57
2023-03-17T09:12:34.179Z,58.23
2023-03-17T09:14:43.761Z,56.86
2023-03-17T09:16:49.616Z,58.03
2023-03-17T09:18:52.942Z,63.37
2023-03-17T09:20:56.448Z,59.07
2023-03-17T09:22:59.942Z,58.84
2023-03-17T09:25:03.051Z,55.19
2023-03-17T09:27:06.352Z,58.21
2023-03-17T09:29:09.578Z,56.50
2023-03-17T09:31:12.910Z,55.92
2023-03-17T09:33:17.765Z,56.87
2023-03-17T09:35:21.078Z,55.17
2023-03-17T09:37:24.304Z,55.74
2023-03-17T09:39:27.562Z,54.82
2023-03-17T09:41:52.467Z,54.61
2023-03-17T09:43:57.941Z,53.99
2023-03-17T09:46:07.623Z,53.32
2023-03-17T09:48:29.556Z,54.63
2023-03-17T09:50:39.199Z,55.82
2023-03-17T09:52:42.211Z,55.47
2023-03-17T09:54:46.654Z,54.98
2023-03-17T09:56:53.056Z,55.22
2023-03-17T09:58:58.602Z,56.80
2023-03-17T10:01:03.103Z,53.88
2023-03-17T10:03:11.444Z,54.18
2023-03-17T10:05:20.575Z,53.57
2023-03-17T10:07:28.545Z,54.64
2023-03-17T10:09:35.817Z,54.70
2023-03-17T10:11:44.144Z,54.86
2023-03-17T10:13:54.848Z,54.89
2023-03-17T10:16:01.073Z,54.45
2023-03-17T10:18:11.426Z,53.04
2023-03-17T10:20:18.845Z,54.33
2023-03-17T10:22:26.412Z,53.93
2023-03-17T10:24:32.535Z,54.05
2023-03-17T10:26:39.839Z,53.36
2023-03-17T10:28:43.217Z,53.59
2023-03-17T10:30:46.406Z,52.58
2023-03-17T10:32:50.258Z,52.12
2023-03-17T10:34:54.223Z,53.36
2023-03-17T10:37:02.134Z,51.56
2023-03-17T10:39:07.074Z,53.27
2023-03-17T10:41:14.778Z,51.22
2023-03-17T10:43:20.691Z,51.31
2023-03-17T10:45:29.145Z,53.15
2023-03-17T10:47:34.856Z,53.57
2023-03-17T10:49:38.055Z,53.95
2023-03-17T10:51:41.107Z,52.70
2023-03-17T10:53:45.531Z,53.06
2023-03-17T10:55:50.998Z,51.69
2023-03-17T10:57:56.092Z,52.37
2023-03-17T11:00:01.755Z,51.89
2023-03-17T11:02:13.505Z,53.10
2023-03-17T11:04:31.541Z,52.43
2023-03-17T11:06:39.331Z,51.37
2023-03-17T11:08:43.960Z,53.05
2023-03-17T11:10:55.607Z,51.30
2023-03-17T11:13:01.758Z,52.03
2023-03-17T11:15:07.079Z,50.88
2023-03-17T11:17:17.531Z,48.89
2023-03-17T11:19:21.883Z,49.62
2023-03-17T11:21:28.940Z,49.60
2023-03-17T11:23:53.910Z,50.89
2023-03-17T11:26:07.433Z,50.92
2023-03-17T11:28:19.873Z,51.30
2023-03-17T11:30:30.550Z,52.24
2023-03-17T11:32:37.027Z,50.15
2023-03-17T11:34:49.502Z,49.96
2023-03-17T11:36:59.151Z,49.19
2023-03-17T11:39:10.160Z,49.50
2023-03-17T11:41:35.684Z,50.31
2023-03-17T11:43:47.550Z,51.06
2023-03-17T11:45:53.942Z,49.59
2023-03-17T11:48:13.815Z,51.03
2023-03-17T11:50:24.556Z,49.66
2023-03-17T11:52:32.603Z,50.40
2023-03-17T11:54:42.539Z,49.08
2023-03-17T11:56:51.192Z,50.09
2023-03-17T11:58:57.332Z,49.51
2023-03-17T12:01:01.726Z,50.88
2023-03-17T12:03:13.375Z,52.40
2023-03-17T12:05:19.007Z,48.67
2023-03-17T12:07:25.751Z,49.45
2023-03-17T12:09:32.004Z,46.79
2023-03-17T12:11:38.094Z,48.08
2023-03-17T12:13:45.894Z,46.99
2023-03-17T12:15:53.258Z,47.17
2023-03-17T12:17:59.213Z,47.70
2023-03-17T12:20:12.448Z,46.76
2023-03-17T12:22:22.688Z,46.22
2023-03-17T12:24:28.848Z,46.78
2023-03-17T12:26:37.166Z,45.50
2023-03-17T12:28:45.688Z,45.83
2023-03-17T12:30:51.631Z,47.11
2023-03-17T12:33:00.872Z,46.48
2023-03-17T12:35:18.078Z,46.90
2023-03-17T12:37:21.432Z,46.46
2023-03-17T12:39:28.128Z,46.51
2023-03-17T12:42:01.669Z,47.11
2023-03-17T12:44:11.274Z,46.62
2023-03-17T12:46:23.380Z,47.76
2023-03-17T12:49:00.219Z,47.75
2023-03-17T12:51:13.838Z,46.45
2023-03-17T12:53:29.592Z,48.29
2023-03-17T12:55:36.052Z,48.54
2023-03-17T12:57:41.808Z,48.10
2023-03-17T12:59:48.197Z,46.81
2023-03-17T13:01:57.488Z,47.57
2023-03-17T13:04:10.596Z,46.63
2023-03-17T13:06:18.455Z,47.73
2023-03-17T13:08:28.248Z,47.30
2023-03-17T13:10:40.132Z,47.82
2023-03-17T13:13:08.845Z,47.51
2023-03-17T13:15:28.270Z,47.11
2023-03-17T13:17:33.125Z,47.43
2023-03-17T13:19:36.227Z,46.67
2023-03-17T13:21:39.900Z,46.63
2023-03-17T13:23:45.076Z,47.52
2023-03-17T13:25:54.715Z,45.65
2023-03-17T13:28:18.195Z,45.54
2023-03-17T13:31:00.771Z,46.91
2023-03-17T13:33:23.210Z,47.44
2023-03-17T13:35:39.165Z,45.51
2023-03-17T13:37:52.043Z,46.81
2023-03-17T13:40:15.787Z,47.51
2023-03-17T13:42:46.317Z,47.23
2023-03-17T13:45:05.453Z,46.64
2023-03-17T13:47:29.556Z,46.09
2023-03-17T13:49:36.712Z,46.68
2023-03-17T13:51:43.897Z,47.61
2023-03-17T13:53:53.520Z,47.36
2023-03-17T13:56:17.540Z,46.13
2023-03-17T13:58:34.312Z,46.62
2023-03-17T14:00:38.578Z,46.48
2023-03-17T14:02:44.599Z,48.02
2023-03-17T14:04:53.500Z,47.99
2023-03-17T14:07:00.534Z,47.22
2023-03-17T14:09:09.643Z,47.12
2023-03-17T14:11:22.482Z,45.27
2023-03-17T14:13:27.914Z,45.93
2023-03-17T14:15:34.307Z,45.79
2023-03-17T14:17:44.528Z,45.69
2023-03-17T14:20:08.215Z,44.90
2023-03-17T14:22:22.375Z,45.93
2023-03-17T14:24:26.823Z,45.96
2023-03-17T14:26:31.185Z,45.33
2023-03-17T14:28:35.516Z,46.36
2023-03-17T14:30:38.723Z,46.10
2023-03-17T14:32:47.636Z,47.71
2023-03-17T14:34:56.191Z,46.98
2023-03-17T14:37:02.364Z,46.97
2023-03-17T14:39:06.097Z,47.77
2023-03-17T14:41:18.315Z,48.12
2023-03-17T14:43:21.367Z,48.46
2023-03-17T14:45:30.247Z,47.76
2023-03-17T14:47:38.560Z,46.67
2023-03-17T14:49:43.138Z,46.51
2023-03-17T14:51:46.647Z,46.38
2023-03-17T14:53:50.210Z,47.00
2023-03-17T14:55:54.184Z,46.40
2023-03-17T14:57:57.270Z,46.63
2023-03-17T15:00:01.816Z,47.87
2023-03-17T15:02:17.230Z,46.78
2023-03-17T15:04:23.181Z,46.91
2023-03-17T15:06:29.591Z,47.15
2023-03-17T15:08:46.112Z,47.41
2023-03-17T15:10:49.387Z,47.75
2023-03-17T15:13:01.353Z,48.80
2023-03-17T15:15:07.630Z,47.90
2023-03-17T15:17:17.779Z,47.77
2023-03-17T15:19:23.153Z,48.73
2023-03-17T15:21:34.427Z,47.85
2023-03-17T15:23:40.803Z,47.15
2023-03-17T15:25:45.317Z,48.26
2023-03-17T15:27:49.114Z,47.92
2023-03-17T15:29:52.209Z,47.83
2023-03-17T15:31:56.986Z,48.08
2023-03-17T15:34:00.282Z,47.03
2023-03-17T15:36:03.965Z,47.41
2023-03-17T15:38:10.827Z,47.14
2023-03-17T15:40:15.729Z,47.15
2023-03-17T15:42:22.146Z,48.08
2023-03-17T15:44:26.040Z,49.69
2023-03-17T15:46:32.298Z,49.35
2023-03-17T15:48:36.746Z,46.86
2023-03-17T15:50:39.867Z,47.98
2023-03-17T15:52:43.760Z,48.41
2023-03-17T15:54:48.870Z,48.69
2023-03-17T15:56:52.142Z,49.27
2023-03-17T15:58:55.392Z,49.87
2023-03-17T16:00:59.697Z,49.82
2023-03-17T16:03:07.414Z,51.62
2023-03-17T16:05:17.205Z,50.06
2023-03-17T16:07:21.318Z,50.97
2023-03-17T16:09:24.316Z,51.89
2023-03-17T16:11:31.906Z,53.28
2023-03-17T16:13:35.038Z,51.53
2023-03-17T16:15:39.546Z,52.61
2023-03-17T16:17:42.756Z,52.71
2023-03-17T16:19:45.957Z,52.08
2023-03-17T16:21:49.534Z,52.87
2023-03-17T16:23:52.706Z,51.91
2023-03-17T16:26:07.896Z,53.66
2023-03-17T16:28:21.201Z,53.18
2023-03-17T16:30:26.019Z,54.19
2023-03-17T16:32:29.112Z,54.20
2023-03-17T16:34:32.784Z,52.56
2023-03-17T16:36:35.828Z,53.70
2023-03-17T16:38:38.889Z,53.59
2023-03-17T16:40:42.823Z,53.49
2023-03-17T16:42:46.025Z,53.81
2023-03-17T16:44:51.196Z,55.48
2023-03-17T16:46:54.444Z,57.36
2023-03-17T16:48:57.631Z,56.87
2023-03-17T16:51:00.647Z,56.51
2023-03-17T16:53:03.734Z,57.25
2023-03-17T16:55:09.442Z,58.41
2023-03-17T16:57:13.369Z,58.17
2023-03-17T16:59:24.598Z,57.17
2023-03-17T17:01:30.093Z,56.86
2023-03-17T17:03:33.346Z,56.29
2023-03-17T17:05:36.668Z,56.40
2023-03-17T17:07:39.954Z,56.14
2023-03-17T17:09:42.984Z,56.35
2023-03-17T17:11:46.097Z,56.12
2023-03-17T17:13:51.759Z,56.57
2023-03-17T17:15:55.801Z,55.88
2023-03-17T17:18:02.550Z,55.56
2023-03-17T17:20:07.925Z,56.33
2023-03-17T17:22:12.403Z,55.44
2023-03-17T17:24:16.509Z,55.41
2023-03-17T17:26:19.800Z,56.97
2023-03-17T17:28:24.480Z,57.48
2023-03-17T17:30:30.256Z,57.75
2023-03-17T17:32:33.858Z,57.29
2023-03-17T17:34:38.636Z,57.01
2023-03-17T17:36:42.077Z,57.22
2023-03-17T17:38:45.704Z,57.48
2023-03-17T17:40:49.849Z,57.16
2023-03-17T17:42:53.463Z,57.24
2023-03-17T17:44:56.557Z,57.53
2023-03-17T17:46:59.846Z,56.94
2023-03-17T17:49:03.103Z,57.96
2023-03-17T17:51:07.669Z,58.99
2023-03-17T17:53:12.366Z,59.71
2023-03-17T17:55:15.774Z,61.68
2023-03-17T17:57:19.251Z,62.09
2023-03-17T17:59:23.623Z,63.00
2023-03-17T18:01:26.911Z,63.36
2023-03-17T18:03:32.148Z,65.25
2023-03-17T18:05:36.178Z,65.31
2023-03-17T18:07:41.289Z,67.07
2023-03-17T18:09:44.381Z,65.83
2023-03-17T18:11:47.638Z,65.75
2023-03-17T18:13:51.000Z,66.21
2023-03-17T18:15:54.216Z,67.50
2023-03-17T18:17:57.423Z,67.71
2023-03-17T18:20:00.803Z,67.16
2023-03-17T18:22:04.417Z,67.15
2023-03-17T18:24:09.606Z,68.73
2023-03-17T18:26:13.072Z,67.70
2023-03-17T18:28:16.288Z,67.35
2023-03-17T18:30:22.318Z,67.71
2023-03-17T18:32:25.970Z,68.95
2023-03-17T18:34:35.139Z,70.27
2023-03-17T18:36:38.582Z,68.60
2023-03-17T18:38:41.713Z,70.43
2023-03-17T18:40:46.401Z,68.01
2023-03-17T18:42:49.514Z,69.82
2023-03-17T18:44:52.775Z,69.89
2023-03-17T18:46:55.902Z,70.90
2023-03-17T18:48:59.128Z,68.88
2023-03-17T18:51:02.338Z,69.24
2023-03-17T18:53:05.779Z,69.83
2023-03-17T18:55:10.140Z,70.29
2023-03-17T18:57:14.840Z,69.72
2023-03-17T18:59:17.972Z,67.87
2023-03-17T19:01:21.520Z,68.39
2023-03-17T19:03:24.812Z,69.73
2023-03-17T19:05:27.891Z,68.78
2023-03-17T19:07:31.266Z,68.38
2023-03-17T19:09:34.275Z,71.18
2023-03-17T19:11:38.885Z,70.60
2023-03-17T19:13:44.934Z,70.13
2023-03-17T19:15:48.172Z,68.11
2023-03-17T19:17:51.491Z,68.90
2023-03-17T19:19:54.762Z,70.73
2023-03-17T19:21:57.818Z,70.11
2023-03-17T19:24:03.310Z,71.90
2023-03-17T19:26:07.567Z,71.17
2023-03-17T19:28:10.637Z,71.06
2023-03-17T19:30:16.167Z,72.47
2023-03-17T19:32:19.323Z,71.05
2023-03-17T19:34:23.035Z,70.85
2023-03-17T19:36:26.167Z,71.55
2023-03-17T19:38:29.430Z,72.52
2023-03-17T19:40:32.977Z,71.79
2023-03-17T19:42:36.356Z,73.55
2023-03-17T19:44:39.493Z,73.21
2023-03-17T19:46:44.098Z,72.64
2023-03-17T19:48:47.190Z,72.66
2023-03-17T19:50:50.320Z,72.68
2023-03-17T19:52:53.972Z,72.85
2023-03-17T19:54:57.041Z,73.20
2023-03-17T19:57:00.123Z,73.60
2023-03-17T19:59:03.297Z,73.64
2023-03-17T20:01:07.537Z,74.43
2023-03-17T20:03:12.719Z,73.81
2023-03-17T20:05:16.648Z,74.18
2023-03-17T20:07:19.847Z,74.05
2023-03-17T20:09:23.135Z,74.42
2023-03-17T20:11:27.259Z,74.91
2023-03-17T20:13:30.436Z,74.46
2023-03-17T20:15:33.769Z,74.81
2023-03-17T20:17:37.361Z,74.96
2023-03-17T20:19:41.871Z,75.04
2023-03-17T20:21:45.114Z,74.86
2023-03-17T20:23:48.239Z,74.96
2023-03-17T20:25:52.235Z,74.88
2023-03-17T20:27:55.413Z,76.44
2023-03-17T20:29:59.046Z,75.96
2023-03-17T20:32:02.235Z,75.88
2023-03-17T20:34:05.506Z,76.29
2023-03-17T20:36:10.745Z,77.09
2023-03-17T20:38:14.612Z,77.21
2023-03-17T20:40:18.039Z,77.26
2023-03-17T20:42:21.707Z,76.99
2023-03-17T20:44:24.955Z,77.39
2023-03-17T20:46:28.097Z,77.25
2023-03-17T20:48:31.352Z,76.49
2023-03-17T20:50:37.898Z,76.37
2023-03-17T20:52:42.951Z,76.59
2023-03-17T20:54:46.408Z,77.50
2023-03-17T20:56:52.373Z,77.46
2023-03-17T20:58:56.433Z,77.57
2023-03-17T21:01:01.700Z,77.47
2023-03-17T21:03:05.049Z,77.04
2023-03-17T21:05:08.852Z,77.61
2023-03-17T21:07:11.966Z,78.42
2023-03-17T21:09:16.544Z,77.88
2023-03-17T21:11:23.027Z,76.80
2023-03-17T21:13:26.253Z,77.04
2023-03-17T21:15:29.561Z,77.72
2023-03-17T21:17:32.996Z,77.55
2023-03-17T21:19:36.179Z,78.15
2023-03-17T21:21:40.060Z,78.69
2023-03-17T21:23:43.301Z,77.85
2023-03-17T21:25:47.807Z,79.02
2023-03-17T21:27:50.850Z,78.48
2023-03-17T21:29:54.224Z,79.36
2023-03-17T21:31:58.197Z,78.61
2023-03-17T21:34:01.579Z,79.07
2023-03-17T21:36:05.253Z,77.48
2023-03-17T21:38:08.754Z,79.19
2023-03-17T21:40:13.477Z,80.03
2023-03-17T21:42:17.950Z,78.70
2023-03-17T21:44:21.328Z,79.47
2023-03-17T21:46:24.398Z,80.62
2023-03-17T21:48:27.539Z,79.96
2023-03-17T21:50:31.506Z,80.16
2023-03-17T21:52:34.872Z,80.68
2023-03-17T21:54:38.262Z,79.56
2023-03-17T21:56:41.515Z,79.40
2023-03-17T21:58:45.970Z,80.94
2023-03-17T22:00:49.415Z,79.63
2023-03-17T22:02:53.567Z,80.60
2023-03-17T22:04:56.818Z,79.10
2023-03-17T22:07:00.074Z,79.88
2023-03-17T22:09:04.399Z,79.69
2023-03-17T22:11:08.598Z,80.20
2023-03-17T22:13:12.546Z,79.77
2023-03-17T22:15:17.799Z,79.89
2023-03-17T22:17:21.080Z,81.07
2023-03-17T22:19:24.522Z,81.63
2023-03-17T22:21:29.004Z,81.62
2023-03-17T22:23:33.658Z,82.14
2023-03-17T22:25:36.737Z,81.58
2023-03-17T22:27:40.115Z,81.12
2023-03-17T22:29:43.215Z,81.79
2023-03-17T22:31:47.828Z,82.54
2023-03-17T22:33:52.342Z,81.51
2023-03-17T22:35:55.500Z,81.25
2023-03-17T22:37:58.623Z,81.57
2023-03-17T22:40:05.006Z,82.65
2023-03-17T22:42:08.559Z,82.58
2023-03-17T22:44:12.381Z,82.97
2023-03-17T22:46:16.497Z,82.68
2023-03-17T22:48:21.045Z,82.13
2023-03-17T22:50:24.565Z,83.08
2023-03-17T22:52:27.592Z,82.01
2023-03-17T22:54:30.716Z,83.33
2023-03-17T22:56:33.809Z,82.30
2023-03-17T22:58:37.080Z,82.76
2023-03-17T23:00:40.388Z,82.28
2023-03-17T23:02:43.902Z,83.55
2023-03-17T23:04:49.172Z,82.28
2023-03-17T23:06:52.830Z,81.81
2023-03-17T23:08:56.023Z,82.79
2023-03-17T23:11:01.017Z,81.91
2023-03-17T23:13:04.629Z,82.35
2023-03-17T23:15:10.223Z,83.18
2023-03-17T23:17:13.872Z,81.94
2023-03-17T23:19:17.123Z,82.01
2023-03-17T23:21:24.171Z,82.12
2023-03-17T23:23:27.252Z,83.45
2023-03-17T23:25:30.971Z,82.20
2023-03-17T23:27:34.034Z,82.93
2023-03-17T23:29:37.067Z,82.49
2023-03-17T23:31:40.936Z,82.62
2023-03-17T23:33:44.067Z,82.90
2023-03-17T23:35:47.138Z,84.87
2023-03-17T23:37:51.991Z,84.04
2023-03-17T23:39:55.488Z,84.44
2023-03-17T23:41:58.571Z,83.00
2023-03-17T23:44:01.848Z,84.37
2023-03-17T23:46:05.288Z,83.59
2023-03-17T23:48:09.048Z,83.42
2023-03-17T23:50:13.194Z,83.65
2023-03-17T23:52:16.912Z,84.58
2023-03-17T23:54:21.469Z,83.46
2023-03-17T23:56:24.947Z,83.70
2023-03-17T23:58:28.175Z,83.81
